Time;durP1;ratioP1;P1;durP2;ratioP2;P2;SDS_P1;SDS_P2;PMS_P1;PMS_P2;Temp;Humidity;BMP_temperature;BMP_pressure;BME280_temperature;BME280_humidity;BME280_pressure;Samples;Min_cycle;Max_cycle;Signal;HPM_P1;HPM_P2
2023/04/11 00:01:52;;;;;;;0.10;0.10;;;13.90;99.90;;;14.07;56.27;100602.97;6054211;22;98319;-51
2023/04/11 00:04:19;;;;;;;0.43;0.20;;;13.90;99.90;;;14.12;57.30;100614.19;6039785;22;98608;-49
2023/04/11 00:06:46;;;;;;;0.47;0.33;;;14.00;99.90;;;14.03;58.01;100619.94;6050624;22;98828;-51
2023/04/11 00:09:12;;;;;;;0.50;0.33;;;13.90;99.90;;;14.01;58.90;100614.72;6044869;22;97663;-52
2023/04/11 00:11:38;;;;;;;1.07;0.20;;;13.90;99.90;;;14.02;57.16;100604.97;6048813;22;97935;-46
2023/04/11 00:14:04;;;;;;;0.30;0.23;;;13.90;99.90;;;13.93;59.04;100611.63;6042925;22;97109;-53
2023/04/11 00:16:32;;;;;;;0.10;0.10;;;13.80;99.90;;;13.85;59.59;100614.63;6050263;22;98139;-48
2023/04/11 00:18:59;;;;;;;0.17;0.13;;;13.70;99.90;;;13.86;58.88;100624.31;6017964;22;97572;-47
2023/04/11 00:21:25;;;;;;;1.80;0.30;;;13.70;99.90;;;13.82;58.94;100633.34;6047774;23;104374;-47
2023/04/11 00:23:54;;;;;;;0.87;0.20;;;13.70;99.90;;;13.81;58.72;100618.38;6072398;22;108565;-48
2023/04/11 00:26:20;;;;;;;1.80;0.60;;;13.70;99.90;;;13.90;58.05;100602.03;6048857;22;107585;-53
2023/04/11 00:28:47;;;;;;;0.20;0.20;;;13.80;99.90;;;14.00;57.73;100597.97;6066122;23;97640;-49
2023/04/11 00:31:13;;;;;;;3.53;0.20;;;13.90;99.90;;;14.04;57.91;100582.78;6071898;22;97462;-48
2023/04/11 00:33:39;;;;;;;0.37;0.23;;;13.90;99.90;;;14.00;58.94;100597.97;6071659;23;98431;-53
2023/04/11 00:36:06;;;;;;;0.10;0.10;;;13.90;99.90;;;14.02;56.92;100595.22;6071522;23;97568;-48
2023/04/11 00:38:32;;;;;;;0.30;0.20;;;13.90;99.90;;;14.03;58.42;100601.38;6072630;23;98484;-49
2023/04/11 00:40:58;;;;;;;2.77;0.30;;;13.90;99.90;;;14.07;57.56;100602.97;6073704;22;97250;-50
2023/04/11 00:43:23;;;;;;;1.90;0.23;;;13.90;99.90;;;14.03;56.50;100601.38;6076463;22;97251;-48
2023/04/11 00:45:49;;;;;;;3.60;0.60;;;13.90;99.90;;;14.06;57.59;100602.13;6075049;23;123564;-45
2023/04/11 00:48:16;;;;;;;0.40;0.20;;;13.90;99.90;;;14.01;57.65;100614.72;6072100;22;107355;-49
2023/04/11 00:50:42;;;;;;;1.10;0.17;;;13.90;99.90;;;14.00;56.38;100608.56;6074525;23;97144;-46
2023/04/11 00:53:12;;;;;;;1.40;0.23;;;13.90;99.90;;;13.97;58.15;100600.78;6066929;22;97477;-47
2023/04/11 00:55:38;;;;;;;1.40;0.20;;;13.90;99.90;;;13.94;57.87;100603.59;6073281;23;97637;-49
2023/04/11 00:58:07;;;;;;;0.43;0.43;;;13.80;99.90;;;13.98;58.13;100594.53;6070394;22;98283;-51
2023/04/11 01:00:34;;;;;;;1.17;0.60;;;13.90;99.90;;;14.02;58.42;100591.72;6070593;23;97874;-46
2023/04/11 01:03:00;;;;;;;0.47;0.20;;;13.90;99.90;;;14.02;57.67;100586.41;6073403;22;97991;-49
2023/04/11 01:05:28;;;;;;;1.37;0.50;;;13.90;99.90;;;13.98;57.73;100589.22;6073391;23;97577;-45
2023/04/11 01:07:54;;;;;;;2.23;0.37;;;13.90;99.90;;;13.95;57.63;100594.69;6073658;23;97655;-50
2023/04/11 01:10:22;;;;;;;0.90;0.50;;;13.90;99.90;;;14.00;57.33;100595.31;6065707;22;97377;-47
2023/04/11 01:12:48;;;;;;;1.03;0.37;;;14.00;99.90;;;14.06;56.37;100590.66;6071947;23;97610;-54
2023/04/11 01:15:14;;;;;;;0.53;0.20;;;14.00;99.90;;;14.06;56.96;100586.19;6071793;22;112797;-46
2023/04/11 01:17:40;;;;;;;2.33;0.57;;;14.00;99.90;;;14.11;56.18;100578.84;6073383;22;100608;-50
2023/04/11 01:20:08;;;;;;;1.07;0.23;;;14.20;99.90;;;14.16;56.07;100575.94;6065884;22;109597;-49
2023/04/11 01:22:36;;;;;;;1.40;0.60;;;14.30;99.90;;;14.21;54.92;100558.88;6073685;23;97626;-47
2023/04/11 01:25:03;;;;;;;0.93;0.27;;;14.40;99.90;;;14.33;54.95;100567.16;6068677;22;98416;-49
2023/04/11 01:27:30;;;;;;;1.80;0.50;;;14.50;99.90;;;14.31;55.07;100569.84;6071903;22;97069;-51
2023/04/11 01:29:56;;;;;;;1.27;0.40;;;14.50;99.90;;;14.33;55.06;100573.31;6069670;22;97199;-46
2023/04/11 01:32:21;;;;;;;1.47;0.20;;;14.50;99.90;;;14.36;54.44;100573.13;6072675;22;97531;-45
2023/04/11 01:34:51;;;;;;;0.50;0.43;;;14.50;99.90;;;14.38;54.46;100576.56;6073514;22;98722;-47
2023/04/11 01:37:16;;;;;;;0.60;0.30;;;14.60;99.90;;;14.44;54.21;100580.72;6068704;22;96625;-46
2023/04/11 01:39:42;;;;;;;1.37;0.30;;;14.60;99.90;;;14.54;53.60;100576.66;6044869;23;97567;-45
2023/04/11 01:42:09;;;;;;;4.03;0.47;;;14.70;99.90;;;14.69;52.81;100569.66;6074334;22;97431;-47
2023/04/11 01:44:35;;;;;;;1.50;0.50;;;14.90;99.90;;;14.65;53.25;100578.72;6076069;22;97606;-47
2023/04/11 01:47:02;;;;;;;0.77;0.40;;;14.90;99.90;;;14.71;52.52;100563.31;6072173;22;97378;-46
2023/04/11 01:49:27;;;;;;;1.70;0.50;;;14.90;99.90;;;14.66;53.42;100569.81;6075118;23;97963;-49
2023/04/11 01:51:53;;;;;;;1.27;0.40;;;14.80;99.90;;;14.69;53.22;100574.97;6077348;22;97446;-50
2023/04/11 01:54:19;;;;;;;1.50;0.53;;;14.80;99.90;;;14.69;53.43;100580.28;6072146;22;97740;-51
2023/04/11 01:56:45;;;;;;;1.67;0.57;;;14.80;99.90;;;14.73;53.06;100581.81;6049874;23;109918;-50
2023/04/11 01:59:11;;;;;;;0.60;0.57;;;14.90;99.90;;;14.69;53.51;100588.25;6072592;22;97564;-48
2023/04/11 02:01:36;;;;;;;1.00;0.30;;;14.80;99.90;;;14.72;52.70;100590.72;6078039;22;97372;-51
2023/04/11 02:04:02;;;;;;;2.77;0.47;;;14.80;99.90;;;14.72;52.84;100590.72;6070514;22;104649;-50
2023/04/11 02:06:28;;;;;;;2.47;0.30;;;14.90;99.90;;;14.69;52.99;100594.41;6073403;22;97911;-51
2023/04/11 02:08:54;;;;;;;2.67;0.43;;;14.70;99.90;;;14.54;52.99;100590.78;6075139;22;97931;-51
2023/04/11 02:11:20;;;;;;;2.73;0.47;;;14.70;99.90;;;14.40;53.78;100590.59;6071043;22;97586;-48
2023/04/11 02:13:46;;;;;;;2.97;0.80;;;14.60;99.90;;;14.41;52.60;100592.31;6075364;22;97538;-50
2023/04/11 02:16:13;;;;;;;3.47;0.70;;;14.60;99.90;;;14.38;53.88;100583.66;6077863;22;113474;-48
2023/04/11 02:18:41;;;;;;;4.57;1.03;;;14.50;99.90;;;14.34;54.00;100590.09;6072520;22;97832;-48
2023/04/11 02:21:07;;;;;;;0.97;0.23;;;14.50;99.90;;;14.36;53.79;100588.22;6072177;22;97751;-51
2023/04/11 02:23:33;;;;;;;5.83;0.77;;;14.60;99.90;;;14.35;53.70;100600.63;6077407;22;98735;-45
2023/04/11 02:26:00;;;;;;;1.53;0.60;;;14.60;99.90;;;14.37;53.69;100601.38;6076482;22;97539;-48
2023/04/11 02:28:26;;;;;;;2.83;0.50;;;14.60;99.90;;;14.23;53.60;100604.75;6079305;22;97267;-50
2023/04/11 02:30:52;;;;;;;2.63;0.30;;;14.50;99.90;;;14.13;54.23;100594.69;6079179;22;97357;-48
2023/04/11 02:33:18;;;;;;;1.50;0.47;;;14.40;99.90;;;14.14;53.54;100607.00;6073454;22;97372;-49
2023/04/11 02:35:45;;;;;;;2.43;0.50;;;14.50;99.90;;;14.05;54.10;100594.25;6076416;22;99360;-48
2023/04/11 02:38:11;;;;;;;4.53;0.60;;;14.40;99.90;;;14.09;53.44;100611.69;6071929;22;97111;-48
2023/04/11 02:40:37;;;;;;;0.40;0.13;;;14.40;99.90;;;14.16;54.27;100607.78;6076055;22;97616;-49
2023/04/11 02:43:03;;;;;;;3.90;0.83;;;14.40;99.90;;;14.17;53.11;100609.50;6073981;22;113620;-47
2023/04/11 02:45:29;;;;;;;1.03;0.47;;;14.50;99.90;;;14.10;54.00;100613.41;6076374;22;97697;-50
2023/04/11 02:47:55;;;;;;;2.30;0.50;;;14.40;99.90;;;14.03;54.09;100628.75;6079414;22;97411;-48
2023/04/11 02:50:21;;;;;;;0.93;0.57;;;14.40;99.90;;;14.11;54.28;100625.75;6074889;22;97186;-49
2023/04/11 02:52:48;;;;;;;1.23;0.47;;;14.40;99.90;;;14.04;54.07;100633.16;6074823;22;98128;-48
2023/04/11 02:55:14;;;;;;;2.53;0.40;;;14.40;99.90;;;14.04;54.23;100629.66;6074004;22;97478;-50
2023/04/11 02:57:40;;;;;;;1.97;0.70;;;14.40;99.90;;;14.12;53.64;100638.06;6076327;22;97459;-48
2023/04/11 03:00:07;;;;;;;1.80;0.50;;;14.50;99.90;;;13.98;54.25;100639.63;6072869;22;104600;-46
2023/04/11 03:02:33;;;;;;;1.27;0.37;;;14.30;99.90;;;14.05;54.20;100631.38;6078072;22;99193;-51
2023/04/11 03:05:03;;;;;;;1.53;0.37;;;14.30;99.90;;;14.14;53.76;100636.19;6071198;22;112094;-47
2023/04/11 03:07:31;;;;;;;1.20;0.50;;;14.40;99.90;;;13.97;54.11;100640.56;6073508;23;97286;-50
2023/04/11 03:09:57;;;;;;;2.27;0.53;;;14.30;99.90;;;13.98;54.21;100647.56;6074567;22;97543;-49
2023/04/11 03:12:22;;;;;;;2.57;0.60;;;14.30;99.90;;;14.12;52.61;100638.06;6077320;22;97726;-46
2023/04/11 03:14:48;;;;;;;3.53;0.77;;;14.40;99.90;;;14.15;54.06;100637.91;6076887;22;122319;-47
2023/04/11 03:17:14;;;;;;;0.90;0.40;;;14.40;99.90;;;14.18;53.92;100643.06;6074016;22;97819;-48
2023/04/11 03:19:40;;;;;;;7.93;1.00;;;14.50;99.90;;;14.12;53.22;100651.31;6075948;22;98031;-46
2023/04/11 03:22:05;;;;;;;9.30;1.50;;;14.40;99.90;;;14.07;53.92;100645.41;6073695;22;111834;-49
2023/04/11 03:24:31;;;;;;;1.20;0.57;;;14.30;99.90;;;14.05;53.38;100647.28;6071321;23;117394;-50
2023/04/11 03:26:57;;;;;;;3.97;0.70;;;14.30;99.90;;;14.10;53.59;100645.25;6072313;22;97725;-51
2023/04/11 03:29:23;;;;;;;2.33;0.43;;;14.30;99.90;;;14.12;53.66;100649.53;6079131;22;104252;-46
2023/04/11 03:31:49;;;;;;;3.50;0.50;;;14.30;99.90;;;14.13;53.16;100645.09;6071790;22;101334;-47
2023/04/11 03:34:16;;;;;;;1.97;0.70;;;14.30;99.90;;;14.15;53.59;100654.69;6057875;22;97343;-50
2023/04/11 03:36:42;;;;;;;2.17;0.70;;;14.30;99.90;;;14.20;53.72;100646.50;6065557;23;97451;-47
2023/04/11 03:39:08;;;;;;;5.27;0.60;;;14.40;99.90;;;14.18;52.59;100648.38;6074572;22;109984;-49
2023/04/11 03:41:35;;;;;;;2.07;1.13;;;14.30;99.90;;;14.09;52.53;100659.44;6081946;23;116496;-51
2023/04/11 03:44:00;;;;;;;3.33;0.70;;;14.20;99.90;;;13.93;53.44;100652.25;6078563;22;97443;-47
2023/04/11 03:46:26;;;;;;;0.90;0.50;;;13.90;99.90;;;13.96;53.97;100648.59;6084366;22;97313;-50
2023/04/11 03:48:52;;;;;;;1.57;0.40;;;13.90;99.90;;;13.88;53.69;100646.28;6084901;22;97393;-49
2023/04/11 03:51:18;;;;;;;1.37;0.67;;;13.80;99.90;;;13.88;53.29;100672.81;6076553;22;98018;-46
2023/04/11 03:53:43;;;;;;;1.60;0.83;;;13.80;99.90;;;13.81;53.78;100666.09;6082817;23;114087;-50
2023/04/11 03:56:09;;;;;;;3.40;0.67;;;13.70;99.90;;;13.80;53.70;100666.19;6079032;22;112734;-49
2023/04/11 03:58:35;;;;;;;3.30;0.50;;;13.80;99.90;;;13.92;52.71;100676.19;6076135;22;101806;-50
2023/04/11 04:01:01;;;;;;;2.50;1.17;;;13.90;99.90;;;13.95;52.35;100678.69;6076662;22;97813;-51
2023/04/11 04:03:27;;;;;;;2.03;0.73;;;14.00;99.90;;;13.94;53.60;100685.78;6076031;22;98257;-48
2023/04/11 04:05:53;;;;;;;7.67;1.03;;;14.10;99.90;;;13.90;51.88;100692.19;6075511;22;97642;-48
2023/04/11 04:08:19;;;;;;;2.40;0.60;;;14.10;99.90;;;14.00;52.34;100690.78;6073271;22;97281;-47
2023/04/11 04:10:45;;;;;;;1.30;0.77;;;14.20;99.90;;;14.08;52.32;100676.28;6074769;22;105159;-47
2023/04/11 04:13:11;;;;;;;2.93;0.90;;;14.20;99.90;;;14.04;51.97;100677.38;6074430;22;97235;-47
2023/04/11 04:15:37;;;;;;;5.70;1.00;;;14.20;99.90;;;13.95;52.56;100679.56;6076905;22;97433;-45
2023/04/11 04:18:03;;;;;;;1.00;0.27;;;14.10;99.90;;;13.91;52.25;100667.38;6073283;22;97632;-49
2023/04/11 04:20:29;;;;;;;1.00;0.30;;;14.00;99.90;;;13.92;53.23;100668.25;6077719;22;98098;-50
2023/04/11 04:22:55;;;;;;;2.73;0.50;;;14.00;99.90;;;13.80;53.23;100669.69;6072991;23;108694;-46
2023/04/11 04:25:23;;;;;;;4.27;0.77;;;13.90;99.90;;;13.85;52.64;100672.97;6074130;22;97635;-49
2023/04/11 04:27:52;;;;;;;1.37;0.63;;;13.90;99.90;;;13.74;53.05;100672.63;6080218;22;97304;-50
2023/04/11 04:30:20;;;;;;;5.03;0.50;;;14.00;99.90;;;13.78;52.39;100666.25;6072542;22;99013;-47
2023/04/11 04:32:46;;;;;;;1.17;0.40;;;14.00;99.90;;;13.75;53.33;100666.41;6075399;22;97016;-48
2023/04/11 04:35:15;;;;;;;1.57;0.33;;;13.90;99.90;;;13.66;53.67;100678.31;6073036;22;97271;-52
2023/04/11 04:37:44;;;;;;;2.70;0.50;;;13.90;99.90;;;13.62;53.28;100681.19;6074324;22;97879;-47
2023/04/11 04:40:14;;;;;;;0.60;0.60;;;13.90;99.90;;;13.55;54.05;100688.56;6071596;22;97332;-49
2023/04/11 04:42:41;;;;;;;5.30;0.87;;;13.80;99.90;;;13.64;54.79;100684.63;6080252;22;99209;-50
2023/04/11 04:45:08;;;;;;;2.47;0.80;;;13.90;99.90;;;13.64;53.75;100692.56;6074521;22;97087;-47
2023/04/11 04:47:36;;;;;;;4.47;0.53;;;13.90;99.90;;;13.39;54.63;100696.38;6066753;22;97038;-47
2023/04/11 04:50:03;;;;;;;1.23;0.53;;;13.80;99.90;;;13.56;55.08;100692.94;6071071;22;99042;-49
2023/04/11 04:52:29;;;;;;;3.17;1.13;;;13.90;99.90;;;13.29;54.91;100700.38;6073655;22;97610;-47
2023/04/11 04:54:59;;;;;;;2.00;0.40;;;13.70;99.90;;;13.13;56.32;100709.06;6055161;23;97455;-46
2023/04/11 04:57:28;;;;;;;4.20;0.67;;;13.50;99.90;;;13.15;56.09;100708.06;6077713;22;96738;-46
2023/04/11 04:59:54;;;;;;;4.10;0.67;;;13.40;99.90;;;13.33;55.35;100703.75;6073646;23;100149;-47
2023/04/11 05:02:20;;;;;;;5.27;0.97;;;13.60;99.90;;;13.52;55.27;100707.25;6075928;22;102100;-50
2023/04/11 05:04:49;;;;;;;4.37;1.00;;;13.80;99.90;;;13.34;54.71;100714.28;6074779;23;96882;-48
2023/04/11 05:07:15;;;;;;;2.37;0.57;;;13.70;99.90;;;13.39;54.33;100709.63;6070276;22;97358;-50
2023/04/11 05:09:41;;;;;;;1.63;0.40;;;13.70;99.90;;;13.42;55.09;100711.25;6078673;22;98026;-46
2023/04/11 05:12:08;;;;;;;2.10;0.90;;;13.70;99.90;;;13.29;55.53;100721.56;6074595;22;97831;-49
2023/04/11 05:14:33;;;;;;;3.73;0.60;;;13.70;99.90;;;13.33;55.35;100723.16;6077800;22;97687;-50
2023/04/11 05:16:59;;;;;;;3.83;1.00;;;13.60;99.90;;;13.30;55.30;100723.28;6074189;22;97817;-47
2023/04/11 05:19:25;;;;;;;1.53;0.57;;;13.60;99.90;;;12.97;55.57;100719.47;6074036;22;98296;-50
2023/04/11 05:21:51;;;;;;;1.40;0.40;;;13.40;99.90;;;13.05;56.17;100712.06;6074088;22;97488;-46
2023/04/11 05:24:17;;;;;;;2.00;0.70;;;13.40;99.90;;;12.84;55.77;100718.31;6073253;22;97422;-47
2023/04/11 05:26:43;;;;;;;4.53;0.83;;;13.30;99.90;;;12.80;57.11;100723.72;6075540;22;97634;-49
2023/04/11 05:29:10;;;;;;;3.67;0.70;;;13.20;99.90;;;12.71;56.48;100725.91;6072255;22;97435;-50
2023/04/11 05:31:36;;;;;;;1.03;0.50;;;13.10;99.90;;;12.63;56.49;100726.25;6076286;22;97388;-50
2023/04/11 05:34:02;;;;;;;3.57;0.70;;;13.00;99.90;;;12.65;57.51;100739.41;6076703;22;97384;-53
2023/04/11 05:36:29;;;;;;;3.20;0.70;;;13.00;99.90;;;12.73;56.00;100740.81;6077598;22;99875;-48
2023/04/11 05:38:54;;;;;;;4.80;0.70;;;13.10;99.90;;;12.89;56.80;100740.16;6074161;22;97565;-46
2023/04/11 05:41:20;;;;;;;1.43;0.53;;;13.20;99.90;;;12.72;57.16;100739.06;6073999;22;130988;-48
2023/04/11 05:43:46;;;;;;;6.80;0.97;;;13.00;99.90;;;12.59;55.79;100742.34;6078772;22;97381;-46
2023/04/11 05:46:12;;;;;;;1.00;0.50;;;13.00;99.90;;;12.88;53.96;100741.09;6072907;22;112997;-49
2023/04/11 05:48:38;;;;;;;2.57;0.50;;;13.20;99.90;;;12.89;56.54;100742.81;6079161;22;97857;-50
2023/04/11 05:51:06;;;;;;;6.53;1.73;;;13.20;99.90;;;12.64;55.26;100759.72;6073794;22;97475;-49
2023/04/11 05:53:32;;;;;;;9.03;1.03;;;13.10;99.90;;;12.91;54.66;100752.41;6075079;22;97857;-50
2023/04/11 05:55:57;;;;;;;2.60;1.03;;;13.30;99.90;;;12.93;54.77;100749.69;6077675;22;97351;-47
2023/04/11 05:58:24;;;;;;;1.43;0.67;;;13.30;99.90;;;12.91;55.36;100752.41;6075933;23;99039;-50
2023/04/11 06:00:50;;;;;;;2.77;0.63;;;13.30;99.90;;;12.82;54.87;100764.22;6076539;22;97627;-47
2023/04/11 06:03:16;;;;;;;1.97;0.83;;;13.20;99.90;;;12.93;55.80;100765.56;6075868;22;97710;-49
2023/04/11 06:05:42;;;;;;;4.00;1.13;;;13.30;99.90;;;12.79;56.86;100769.66;6076580;22;108489;-47
2023/04/11 06:08:09;;;;;;;5.90;0.90;;;13.20;99.90;;;12.66;55.35;100776.41;6075231;22;97788;-50
2023/04/11 06:10:34;;;;;;;3.53;1.10;;;13.10;99.90;;;12.55;55.54;100770.69;6081181;22;98247;-47
2023/04/11 06:13:01;;;;;;;4.13;0.73;;;13.00;99.90;;;11.88;57.82;100799.88;6075395;22;101331;-49
2023/04/11 06:15:27;;;;;;;9.60;0.87;;;12.40;99.90;;;11.99;59.05;100792.38;6080236;22;97510;-45
2023/04/11 06:17:53;;;;;;;4.13;0.77;;;12.40;99.90;;;12.04;59.50;100794.84;6073770;22;121188;-45
2023/04/11 06:20:22;;;;;;;4.07;1.37;;;12.40;99.90;;;11.97;58.79;100794.22;6055310;22;97366;-48
2023/04/11 06:22:50;;;;;;;1.27;0.50;;;12.40;99.90;;;12.01;58.84;100792.34;6075522;23;98745;-46
2023/04/11 06:25:17;;;;;;;3.33;1.00;;;12.40;99.90;;;11.75;59.12;100803.88;6073319;22;97653;-49
2023/04/11 06:27:43;;;;;;;5.50;0.90;;;12.30;99.90;;;11.72;58.47;100799.56;6077705;22;97444;-48
2023/04/11 06:30:09;;;;;;;2.17;0.70;;;12.20;99.90;;;11.65;58.73;100813.91;6070127;22;127704;-49
2023/04/11 06:32:35;;;;;;;2.80;1.10;;;12.10;99.90;;;11.46;58.77;100819.03;6074627;22;97362;-47
2023/04/11 06:35:01;;;;;;;6.17;1.50;;;11.90;99.90;;;11.44;59.03;100815.59;6073807;22;98980;-47
2023/04/11 06:37:27;;;;;;;2.67;1.10;;;11.90;99.90;;;11.46;58.99;100818.19;6074748;22;97960;-51
2023/04/11 06:39:53;;;;;;;6.27;1.17;;;11.80;99.90;;;11.53;59.23;100820.50;6072009;22;97798;-47
2023/04/11 06:42:19;;;;;;;2.73;0.77;;;11.90;99.90;;;11.37;58.81;100824.63;6073684;22;102109;-51
2023/04/11 06:44:45;;;;;;;3.27;0.83;;;11.80;99.90;;;11.42;58.58;100832.38;6075127;22;97410;-47
2023/04/11 06:47:11;;;;;;;0.60;0.50;;;11.80;99.90;;;11.43;58.18;100827.06;6070159;22;97976;-49
2023/04/11 06:49:37;;;;;;;2.33;0.87;;;11.80;99.90;;;11.50;58.32;100835.63;6073256;22;100122;-51
2023/04/11 06:52:03;;;;;;;1.97;0.93;;;11.90;99.90;;;11.50;57.85;100844.41;6072288;22;97320;-47
2023/04/11 06:54:29;;;;;;;3.10;0.90;;;12.00;99.90;;;11.48;57.57;100837.47;6076997;22;97711;-47
2023/04/11 06:56:56;;;;;;;4.30;0.80;;;11.90;99.90;;;11.30;57.11;100833.72;6072693;22;122531;-48
2023/04/11 06:59:22;;;;;;;1.53;0.60;;;11.80;99.90;;;11.34;57.02;100837.97;6073778;22;100850;-48
2023/04/11 07:01:49;;;;;;;3.33;0.87;;;11.80;99.90;;;11.52;57.24;100836.44;6076540;22;96957;-50
2023/04/11 07:04:15;;;;;;;6.10;1.03;;;11.90;99.90;;;11.58;57.13;100850.28;6072274;22;97369;-48
2023/04/11 07:06:41;;;;;;;5.17;1.53;;;12.00;99.90;;;11.58;57.41;100842.38;6072673;22;98712;-51
2023/04/11 07:09:11;;;;;;;2.17;0.87;;;12.00;99.90;;;11.55;56.43;100850.38;6076298;22;97555;-51
2023/04/11 07:11:37;;;;;;;2.87;0.77;;;12.10;99.90;;;11.45;57.15;100851.66;6074250;22;97060;-49
2023/04/11 07:14:03;;;;;;;2.93;1.00;;;12.00;99.90;;;11.55;56.72;100845.09;6071645;22;102043;-51
2023/04/11 07:16:29;;;;;;;1.37;0.90;;;12.00;99.90;;;11.49;56.63;100852.41;6074099;22;97110;-50
2023/04/11 07:18:55;;;;;;;2.10;1.50;;;12.00;99.90;;;11.35;56.94;100863.44;6071573;22;97375;-48
2023/04/11 07:21:21;;;;;;;9.63;1.30;;;11.90;99.90;;;11.44;56.74;100860.50;6075397;22;97991;-47
2023/04/11 07:23:47;;;;;;;3.23;1.03;;;11.90;99.90;;;11.19;56.36;100862.28;6076658;22;97819;-48
2023/04/11 07:26:15;;;;;;;4.00;1.60;;;11.80;99.90;;;11.22;56.38;100872.72;6069658;22;121580;-48
2023/04/11 07:28:40;;;;;;;0.77;0.50;;;11.80;99.90;;;11.39;56.62;100872.97;6076073;22;97683;-45
2023/04/11 07:31:07;;;;;;;1.67;0.60;;;11.80;99.90;;;11.51;56.24;100874.34;6070063;22;102767;-46
2023/04/11 07:33:34;;;;;;;1.70;0.50;;;12.00;99.90;;;11.51;56.29;100885.75;6079880;23;97593;-47
2023/04/11 07:36:00;;;;;;;1.67;0.57;;;12.00;99.90;;;11.49;55.89;100882.31;6068712;22;102607;-50
2023/04/11 07:38:28;;;;;;;2.77;0.83;;;12.00;99.90;;;11.61;58.02;100876.59;6072046;22;97454;-49
2023/04/11 07:41:00;;;;;;;2.60;0.50;;;12.00;99.90;;;11.61;56.77;100879.25;6077424;22;96848;-49
2023/04/11 07:43:27;;;;;;;2.33;0.80;;;12.00;99.90;;;11.65;55.90;100887.03;6075170;22;96971;-51
2023/04/11 07:45:56;;;;;;;5.17;1.00;;;12.10;99.90;;;11.75;56.68;100884.03;6075534;22;97691;-48
2023/04/11 07:48:23;;;;;;;0.80;0.77;;;12.20;99.90;;;11.74;56.36;100886.72;6077811;22;99669;-49
2023/04/11 07:50:49;;;;;;;4.07;0.80;;;12.20;99.90;;;11.99;55.79;100895.47;6074857;22;97326;-48
2023/04/11 07:53:15;;;;;;;2.93;1.10;;;12.40;99.90;;;12.03;55.75;100883.88;6075285;22;97800;-46
2023/04/11 07:55:41;;;;;;;0.97;0.50;;;12.50;99.90;;;12.11;53.85;100886.22;6076096;22;98978;-49
2023/04/11 07:58:07;;;;;;;2.40;0.73;;;12.60;99.90;;;12.14;54.11;100886.09;6073486;22;97741;-50
2023/04/11 08:00:33;;;;;;;1.27;0.20;;;12.60;99.90;;;12.04;54.83;100890.91;6078664;22;97967;-48
2023/04/11 08:03:03;;;;;;;3.57;0.80;;;12.50;99.90;;;12.16;54.46;100901.00;6075771;22;97678;-51
2023/04/11 08:05:31;;;;;;;0.63;0.50;;;12.60;99.90;;;11.97;53.89;100905.25;6078048;22;97313;-51
2023/04/11 08:07:57;;;;;;;3.40;0.40;;;12.50;99.90;;;12.07;53.50;100900.47;6071544;23;97851;-49
2023/04/11 08:10:24;;;;;;;4.63;0.83;;;12.50;99.90;;;12.15;54.51;100893.09;6079868;22;97976;-48
2023/04/11 08:12:50;;;;;;;1.03;0.50;;;12.60;99.90;;;12.55;52.68;100897.72;6074728;23;97148;-47
2023/04/11 08:15:17;;;;;;;2.03;0.67;;;12.90;99.90;;;12.52;52.64;100919.00;6072791;22;113908;-49
2023/04/11 08:17:44;;;;;;;0.77;0.33;;;13.00;99.90;;;12.32;51.82;100905.69;6077560;23;97431;-48
2023/04/11 08:20:11;;;;;;;5.40;0.70;;;12.80;99.90;;;12.20;52.31;100923.75;6070196;22;97505;-47
2023/04/11 08:22:38;;;;;;;0.43;0.43;;;12.60;99.90;;;12.46;52.76;100919.25;6080636;22;99584;-48
2023/04/11 08:25:07;;;;;;;0.47;0.40;;;12.80;99.90;;;12.23;52.62;100927.22;6074809;22;97900;-48
2023/04/11 08:27:32;;;;;;;0.67;0.50;;;12.70;99.90;;;12.25;52.24;100923.56;6080168;22;97164;-48
2023/04/11 08:29:58;;;;;;;5.10;1.00;;;12.70;99.90;;;12.19;52.79;100922.03;6073468;22;100479;-47
2023/04/11 08:32:24;;;;;;;2.80;0.80;;;12.70;99.90;;;12.49;53.20;100919.13;6071206;22;96969;-46
2023/04/11 08:34:50;;;;;;;1.10;0.80;;;12.80;99.90;;;12.74;53.76;100919.88;6077163;22;97801;-47
2023/04/11 08:37:16;;;;;;;2.93;1.07;;;13.00;99.90;;;12.68;52.01;100920.13;6036457;22;97574;-41
2023/04/11 08:39:42;;;;;;;0.77;0.27;;;13.20;99.90;;;12.40;53.97;100911.53;6072941;22;106994;-40
2023/04/11 08:42:28;;;;;;;4.20;1.70;;;12.80;99.90;;;12.59;51.39;100915.22;6071459;23;111816;-41
2023/04/11 08:45:00;;;;;;;1.57;0.60;;;13.00;99.90;;;12.94;50.21;100926.13;6075007;22;97490;-45
2023/04/11 08:47:26;;;;;;;1.93;0.43;;;13.30;99.90;;;12.92;50.84;100928.00;6068985;22;100531;-45
2023/04/11 08:49:52;;;;;;;0.97;0.50;;;13.30;99.90;;;13.14;50.44;100933.25;6072196;22;97250;-47
2023/04/11 08:52:19;;;;;;;2.60;0.90;;;13.50;99.90;;;13.26;50.19;100933.63;6073136;22;96975;-47
2023/04/11 08:54:46;;;;;;;2.23;0.50;;;13.60;99.90;;;13.18;47.69;100938.41;6072860;22;98343;-49
2023/04/11 08:57:32;;;;;;;6.07;0.57;;;13.60;99.90;;;12.93;48.57;100935.00;6072347;22;97799;-45
2023/04/11 09:00:17;;;;;;;0.87;0.27;;;13.50;99.90;;;12.98;49.69;100930.38;6070559;22;97072;-46
2023/04/11 09:03:05;;;;;;;1.60;0.30;;;13.30;99.90;;;13.01;48.95;100933.75;6075977;23;97855;-48
2023/04/11 09:05:35;;;;;;;1.07;0.40;;;13.40;99.90;;;12.99;49.36;100929.44;6070146;22;102366;-45
2023/04/11 09:08:07;;;;;;;2.47;0.50;;;13.40;99.90;;;13.09;49.39;100926.38;6069279;22;98786;-48
2023/04/11 09:10:35;;;;;;;0.50;0.30;;;13.40;99.90;;;13.27;48.82;100938.00;6073897;22;97648;-48
2023/04/11 09:13:17;;;;;;;3.10;0.57;;;13.60;99.90;;;13.34;49.87;100928.88;6070322;22;97912;-45
2023/04/11 09:15:43;;;;;;;1.57;0.63;;;13.70;99.90;;;13.47;48.63;100928.34;6073598;22;97740;-46
2023/04/11 09:18:08;;;;;;;0.93;0.33;;;13.90;99.90;;;13.50;48.98;100942.34;6069148;22;121763;-50
2023/04/11 09:20:34;;;;;;;0.50;0.50;;;13.90;99.90;;;13.34;46.82;100933.31;6075186;22;107980;-49
2023/04/11 09:23:00;;;;;;;3.13;0.63;;;13.80;99.90;;;13.53;47.27;100936.03;6069567;22;97824;-48
2023/04/11 09:25:26;;;;;;;3.80;0.50;;;13.90;99.90;;;13.39;46.46;100934.84;6073972;23;97886;-48
2023/04/11 09:28:09;;;;;;;4.47;0.70;;;13.90;99.90;;;13.45;46.86;100932.84;6074628;22;97576;-50
2023/04/11 09:30:36;;;;;;;0.43;0.43;;;13.90;99.90;;;13.31;46.36;100936.97;6073748;22;97426;-49
2023/04/11 09:33:21;;;;;;;0.40;0.40;;;13.80;99.90;;;13.63;47.41;100932.06;6071669;22;97769;-50
2023/04/11 09:35:49;;;;;;;1.90;0.60;;;14.00;99.90;;;13.67;49.03;100929.19;6072607;22;98103;-47
2023/04/11 09:38:30;;;;;;;0.60;0.40;;;14.10;99.90;;;13.67;48.12;100926.53;6070920;22;98079;-47
2023/04/11 09:40:57;;;;;;;0.47;0.23;;;14.00;99.90;;;13.68;47.32;100935.34;6073023;22;97237;-48
2023/04/11 09:43:23;;;;;;;3.67;0.50;;;14.10;99.90;;;13.68;48.36;100930.06;6073711;22;97743;-48
2023/04/11 09:46:08;;;;;;;2.50;0.50;;;14.00;99.90;;;13.54;46.07;100932.44;6072903;23;98353;-49
2023/04/11 09:48:36;;;;;;;0.97;0.20;;;14.00;99.90;;;13.68;49.46;100922.09;6072734;22;99896;-48
2023/04/11 09:51:06;;;;;;;2.43;0.50;;;14.00;99.90;;;13.75;48.53;100926.22;6071497;22;96740;-49
2023/04/11 09:53:38;;;;;;;2.13;0.50;;;14.10;99.90;;;13.90;47.17;100929.97;6075846;22;97667;-49
2023/04/11 09:56:08;;;;;;;1.60;0.30;;;14.30;99.90;;;14.06;47.41;100935.44;6068738;22;97700;-48
2023/04/11 09:58:37;;;;;;;0.97;0.40;;;14.40;99.90;;;14.14;46.26;100927.97;6073464;22;97412;-45
2023/04/11 10:01:09;;;;;;;3.30;0.40;;;14.50;99.90;;;14.10;45.93;100937.03;6072644;23;97387;-45
2023/04/11 10:03:38;;;;;;;2.13;0.37;;;14.50;99.90;;;13.92;45.21;100950.19;6078611;22;97731;-46
2023/04/11 10:06:11;;;;;;;0.73;0.50;;;14.40;99.90;;;13.76;44.87;100938.53;6070280;22;98063;-46
2023/04/11 10:08:38;;;;;;;2.00;0.53;;;14.20;99.90;;;13.62;44.82;100956.84;6073809;23;97384;-45
2023/04/11 10:11:07;;;;;;;4.63;0.60;;;14.10;99.90;;;13.74;45.34;100935.06;6070613;22;97221;-48